sensor_id;sensor_type;location;lat;lon;timestamp;P1;durP1;ratioP1;P2;durP2;ratioP2
11638;SDS011;5875;35.940;126.892;2023-12-29T00:02:12;20.83;;;9.83;;
11638;SDS011;5875;35.940;126.892;2023-12-29T00:04:42;13.83;;;8.23;;
11638;SDS011;5875;35.940;126.892;2023-12-29T00:07:09;10.90;;;8.73;;
11638;SDS011;5875;35.940;126.892;2023-12-29T00:09:39;18.23;;;7.67;;
11638;SDS011;5875;35.940;126.892;2023-12-29T00:12:07;7.47;;;4.37;;
11638;SDS011;5875;35.940;126.892;2023-12-29T00:14:38;4.87;;;4.37;;
11638;SDS011;5875;35.940;126.892;2023-12-29T00:17:06;10.27;;;6.40;;
11638;SDS011;5875;35.940;126.892;2023-12-29T00:19:33;7.10;;;6.47;;
11638;SDS011;5875;35.940;126.892;2023-12-29T00:22:00;7.50;;;6.80;;
11638;SDS011;5875;35.940;126.892;2023-12-29T00:24:31;5.00;;;3.13;;
11638;SDS011;5875;35.940;126.892;2023-12-29T00:26:59;4.77;;;4.37;;
11638;SDS011;5875;35.940;126.892;2023-12-29T00:29:26;5.80;;;4.30;;
11638;SDS011;5875;35.940;126.892;2023-12-29T00:32:01;7.20;;;5.67;;
11638;SDS011;5875;35.940;126.892;2023-12-29T00:34:31;8.90;;;5.97;;
11638;SDS011;5875;35.940;126.892;2023-12-29T00:36:58;3.27;;;2.97;;
11638;SDS011;5875;35.940;126.892;2023-12-29T00:39:25;4.60;;;4.20;;
11638;SDS011;5875;35.940;126.892;2023-12-29T00:41:56;3.70;;;2.43;;
11638;SDS011;5875;35.940;126.892;2023-12-29T00:44:23;7.00;;;5.60;;
11638;SDS011;5875;35.940;126.892;2023-12-29T00:46:50;4.50;;;4.10;;
11638;SDS011;5875;35.940;126.892;2023-12-29T00:49:18;5.67;;;4.57;;
11638;SDS011;5875;35.940;126.892;2023-12-29T00:51:46;18.70;;;4.83;;
11638;SDS011;5875;35.940;126.892;2023-12-29T00:54:14;13.40;;;4.30;;
11638;SDS011;5875;35.940;126.892;2023-12-29T00:56:41;4.80;;;4.33;;
11638;SDS011;5875;35.940;126.892;2023-12-29T00:59:13;4.77;;;4.47;;
11638;SDS011;5875;35.940;126.892;2023-12-29T01:01:41;5.90;;;3.93;;
11638;SDS011;5875;35.940;126.892;2023-12-29T01:04:10;3.07;;;2.87;;
11638;SDS011;5875;35.940;126.892;2023-12-29T01:06:37;5.10;;;4.70;;
11638;SDS011;5875;35.940;126.892;2023-12-29T01:09:05;10.07;;;6.53;;
11638;SDS011;5875;35.940;126.892;2023-12-29T01:11:36;4.30;;;3.30;;
11638;SDS011;5875;35.940;126.892;2023-12-29T01:14:03;2.20;;;2.10;;
11638;SDS011;5875;35.940;126.892;2023-12-29T01:16:31;3.90;;;3.60;;
11638;SDS011;5875;35.940;126.892;2023-12-29T01:18:58;5.37;;;4.87;;
11638;SDS011;5875;35.940;126.892;2023-12-29T01:21:25;7.43;;;5.40;;
11638;SDS011;5875;35.940;126.892;2023-12-29T01:23:53;4.43;;;4.10;;
11638;SDS011;5875;35.940;126.892;2023-12-29T01:26:20;4.87;;;4.47;;
11638;SDS011;5875;35.940;126.892;2023-12-29T01:28:47;8.93;;;6.43;;
11638;SDS011;5875;35.940;126.892;2023-12-29T01:31:14;7.57;;;7.07;;
11638;SDS011;5875;35.940;126.892;2023-12-29T01:33:44;4.77;;;4.33;;
11638;SDS011;5875;35.940;126.892;2023-12-29T01:36:20;5.77;;;5.17;;
11638;SDS011;5875;35.940;126.892;2023-12-29T01:38:47;5.50;;;5.00;;
11638;SDS011;5875;35.940;126.892;2023-12-29T01:41:14;5.30;;;4.93;;
11638;SDS011;5875;35.940;126.892;2023-12-29T01:46:30;6.13;;;4.53;;
11638;SDS011;5875;35.940;126.892;2023-12-29T01:48:59;4.03;;;3.67;;
11638;SDS011;5875;35.940;126.892;2023-12-29T01:51:27;5.33;;;4.87;;
11638;SDS011;5875;35.940;126.892;2023-12-29T01:53:55;6.53;;;5.50;;
11638;SDS011;5875;35.940;126.892;2023-12-29T01:56:23;8.10;;;4.80;;
11638;SDS011;5875;35.940;126.892;2023-12-29T01:58:51;5.80;;;5.20;;
11638;SDS011;5875;35.940;126.892;2023-12-29T02:01:20;3.77;;;3.47;;
11638;SDS011;5875;35.940;126.892;2023-12-29T02:03:47;3.90;;;3.70;;
11638;SDS011;5875;35.940;126.892;2023-12-29T02:06:15;17.40;;;3.90;;
11638;SDS011;5875;35.940;126.892;2023-12-29T02:08:43;8.47;;;3.97;;
11638;SDS011;5875;35.940;126.892;2023-12-29T02:11:12;3.23;;;2.93;;
11638;SDS011;5875;35.940;126.892;2023-12-29T02:13:40;2.47;;;2.27;;
11638;SDS011;5875;35.940;126.892;2023-12-29T02:16:09;3.03;;;2.83;;
11638;SDS011;5875;35.940;126.892;2023-12-29T02:18:44;4.07;;;3.43;;
11638;SDS011;5875;35.940;126.892;2023-12-29T02:21:13;3.07;;;2.77;;
11638;SDS011;5875;35.940;126.892;2023-12-29T02:23:40;7.20;;;3.03;;
11638;SDS011;5875;35.940;126.892;2023-12-29T02:26:10;6.40;;;2.70;;
11638;SDS011;5875;35.940;126.892;2023-12-29T02:28:44;3.37;;;2.07;;
11638;SDS011;5875;35.940;126.892;2023-12-29T02:31:19;3.90;;;3.43;;
11638;SDS011;5875;35.940;126.892;2023-12-29T02:33:48;2.50;;;2.33;;
11638;SDS011;5875;35.940;126.892;2023-12-29T02:36:18;6.13;;;4.63;;
11638;SDS011;5875;35.940;126.892;2023-12-29T02:38:48;2.60;;;2.50;;
11638;SDS011;5875;35.940;126.892;2023-12-29T02:41:15;2.17;;;2.07;;
11638;SDS011;5875;35.940;126.892;2023-12-29T02:43:43;4.47;;;4.07;;
11638;SDS011;5875;35.940;126.892;2023-12-29T02:46:10;4.05;;;3.47;;
11638;SDS011;5875;35.940;126.892;2023-12-29T02:48:37;4.43;;;2.00;;
11638;SDS011;5875;35.940;126.892;2023-12-29T02:51:04;3.23;;;2.53;;
11638;SDS011;5875;35.940;126.892;2023-12-29T02:53:33;1.37;;;1.27;;
11638;SDS011;5875;35.940;126.892;2023-12-29T02:56:01;2.53;;;2.37;;
11638;SDS011;5875;35.940;126.892;2023-12-29T02:58:28;1.40;;;1.30;;
11638;SDS011;5875;35.940;126.892;2023-12-29T03:00:55;6.33;;;2.67;;
11638;SDS011;5875;35.940;126.892;2023-12-29T03:03:22;2.27;;;2.07;;
11638;SDS011;5875;35.940;126.892;2023-12-29T03:05:49;1.97;;;1.87;;
11638;SDS011;5875;35.940;126.892;2023-12-29T03:08:16;1.27;;;1.23;;
11638;SDS011;5875;35.940;126.892;2023-12-29T03:10:43;3.67;;;1.73;;
11638;SDS011;5875;35.940;126.892;2023-12-29T03:13:10;5.87;;;4.93;;
11638;SDS011;5875;35.940;126.892;2023-12-29T03:15:37;2.40;;;1.97;;
11638;SDS011;5875;35.940;126.892;2023-12-29T03:18:07;3.30;;;3.00;;
11638;SDS011;5875;35.940;126.892;2023-12-29T03:20:34;1.10;;;1.07;;
11638;SDS011;5875;35.940;126.892;2023-12-29T03:23:01;3.33;;;3.07;;
11638;SDS011;5875;35.940;126.892;2023-12-29T03:25:29;5.83;;;5.33;;
11638;SDS011;5875;35.940;126.892;2023-12-29T03:27:59;1.37;;;1.27;;
11638;SDS011;5875;35.940;126.892;2023-12-29T03:30:28;3.97;;;3.10;;
11638;SDS011;5875;35.940;126.892;2023-12-29T03:32:56;2.10;;;1.83;;
11638;SDS011;5875;35.940;126.892;2023-12-29T03:35:23;1.70;;;1.60;;
11638;SDS011;5875;35.940;126.892;2023-12-29T03:37:50;1.90;;;1.43;;
11638;SDS011;5875;35.940;126.892;2023-12-29T03:40:20;14.60;;;3.00;;
11638;SDS011;5875;35.940;126.892;2023-12-29T03:42:47;1.80;;;1.70;;
11638;SDS011;5875;35.940;126.892;2023-12-29T03:45:14;5.70;;;3.30;;
11638;SDS011;5875;35.940;126.892;2023-12-29T03:47:41;1.77;;;1.63;;
11638;SDS011;5875;35.940;126.892;2023-12-29T03:50:08;1.90;;;1.80;;
11638;SDS011;5875;35.940;126.892;2023-12-29T03:52:38;3.00;;;1.97;;
11638;SDS011;5875;35.940;126.892;2023-12-29T03:55:05;0.87;;;0.87;;
11638;SDS011;5875;35.940;126.892;2023-12-29T03:57:33;3.40;;;3.10;;
11638;SDS011;5875;35.940;126.892;2023-12-29T04:00:03;1.47;;;1.33;;
11638;SDS011;5875;35.940;126.892;2023-12-29T04:02:31;2.33;;;2.23;;
11638;SDS011;5875;35.940;126.892;2023-12-29T04:04:59;0.77;;;0.53;;
11638;SDS011;5875;35.940;126.892;2023-12-29T04:07:26;1.93;;;1.73;;
11638;SDS011;5875;35.940;126.892;2023-12-29T04:09:53;5.30;;;2.50;;
11638;SDS011;5875;35.940;126.892;2023-12-29T04:12:21;3.07;;;2.87;;
11638;SDS011;5875;35.940;126.892;2023-12-29T04:14:48;2.03;;;1.13;;
11638;SDS011;5875;35.940;126.892;2023-12-29T04:17:15;13.87;;;1.90;;
11638;SDS011;5875;35.940;126.892;2023-12-29T04:19:42;3.20;;;1.60;;
11638;SDS011;5875;35.940;126.892;2023-12-29T04:22:09;0.70;;;0.70;;
11638;SDS011;5875;35.940;126.892;2023-12-29T04:24:39;1.43;;;1.37;;
11638;SDS011;5875;35.940;126.892;2023-12-29T04:27:06;1.93;;;1.73;;
11638;SDS011;5875;35.940;126.892;2023-12-29T04:29:34;2.63;;;1.60;;
11638;SDS011;5875;35.940;126.892;2023-12-29T04:32:01;3.37;;;3.07;;
11638;SDS011;5875;35.940;126.892;2023-12-29T04:34:28;3.10;;;2.80;;
11638;SDS011;5875;35.940;126.892;2023-12-29T04:36:55;3.00;;;2.10;;
11638;SDS011;5875;35.940;126.892;2023-12-29T04:39:22;0.73;;;0.73;;
11638;SDS011;5875;35.940;126.892;2023-12-29T04:41:50;2.40;;;2.03;;
11638;SDS011;5875;35.940;126.892;2023-12-29T04:44:17;4.97;;;4.63;;
11638;SDS011;5875;35.940;126.892;2023-12-29T04:46:44;2.10;;;0.80;;
11638;SDS011;5875;35.940;126.892;2023-12-29T04:49:11;1.90;;;1.60;;
11638;SDS011;5875;35.940;126.892;2023-12-29T04:51:38;1.63;;;1.53;;
11638;SDS011;5875;35.940;126.892;2023-12-29T04:54:05;1.47;;;1.37;;
11638;SDS011;5875;35.940;126.892;2023-12-29T04:56:32;1.10;;;1.00;;
11638;SDS011;5875;35.940;126.892;2023-12-29T04:59:03;2.47;;;1.90;;
11638;SDS011;5875;35.940;126.892;2023-12-29T05:01:30;1.27;;;1.13;;
11638;SDS011;5875;35.940;126.892;2023-12-29T05:03:57;1.03;;;1.00;;
11638;SDS011;5875;35.940;126.892;2023-12-29T05:06:24;1.90;;;0.73;;
11638;SDS011;5875;35.940;126.892;2023-12-29T05:08:51;1.80;;;1.57;;
11638;SDS011;5875;35.940;126.892;2023-12-29T05:11:18;2.03;;;1.30;;
11638;SDS011;5875;35.940;126.892;2023-12-29T05:13:45;0.90;;;0.87;;
11638;SDS011;5875;35.940;126.892;2023-12-29T05:16:13;1.50;;;1.43;;
11638;SDS011;5875;35.940;126.892;2023-12-29T05:18:40;2.73;;;2.13;;
11638;SDS011;5875;35.940;126.892;2023-12-29T05:21:13;1.70;;;1.60;;
11638;SDS011;5875;35.940;126.892;2023-12-29T05:23:41;1.60;;;0.90;;
11638;SDS011;5875;35.940;126.892;2023-12-29T05:26:10;1.60;;;1.10;;
11638;SDS011;5875;35.940;126.892;2023-12-29T05:28:37;4.57;;;2.50;;
11638;SDS011;5875;35.940;126.892;2023-12-29T05:31:04;2.33;;;1.60;;
11638;SDS011;5875;35.940;126.892;2023-12-29T05:33:32;0.63;;;0.63;;
11638;SDS011;5875;35.940;126.892;2023-12-29T05:35:59;2.23;;;2.13;;
11638;SDS011;5875;35.940;126.892;2023-12-29T05:38:36;14.23;;;4.83;;
11638;SDS011;5875;35.940;126.892;2023-12-29T05:41:05;0.87;;;0.87;;
11638;SDS011;5875;35.940;126.892;2023-12-29T05:43:33;1.57;;;1.33;;
11638;SDS011;5875;35.940;126.892;2023-12-29T05:46:00;3.10;;;1.90;;
11638;SDS011;5875;35.940;126.892;2023-12-29T05:48:28;4.70;;;4.07;;
11638;SDS011;5875;35.940;126.892;2023-12-29T05:50:55;1.57;;;1.47;;
11638;SDS011;5875;35.940;126.892;2023-12-29T05:53:22;1.17;;;0.80;;
11638;SDS011;5875;35.940;126.892;2023-12-29T05:55:49;0.90;;;0.90;;
11638;SDS011;5875;35.940;126.892;2023-12-29T05:58:16;6.23;;;1.60;;
11638;SDS011;5875;35.940;126.892;2023-12-29T06:00:43;1.13;;;1.13;;
11638;SDS011;5875;35.940;126.892;2023-12-29T06:03:13;1.40;;;1.30;;
11638;SDS011;5875;35.940;126.892;2023-12-29T06:05:40;3.40;;;2.43;;
11638;SDS011;5875;35.940;126.892;2023-12-29T06:08:08;2.10;;;1.67;;
11638;SDS011;5875;35.940;126.892;2023-12-29T06:10:35;1.80;;;1.70;;
11638;SDS011;5875;35.940;126.892;2023-12-29T06:13:02;3.67;;;1.07;;
11638;SDS011;5875;35.940;126.892;2023-12-29T06:15:30;3.57;;;1.83;;
11638;SDS011;5875;35.940;126.892;2023-12-29T06:18:00;8.43;;;1.73;;
11638;SDS011;5875;35.940;126.892;2023-12-29T06:20:30;0.33;;;0.33;;
11638;SDS011;5875;35.940;126.892;2023-12-29T06:22:57;0.57;;;0.57;;
11638;SDS011;5875;35.940;126.892;2023-12-29T06:25:25;2.77;;;2.57;;
11638;SDS011;5875;35.940;126.892;2023-12-29T06:27:53;2.10;;;1.70;;
11638;SDS011;5875;35.940;126.892;2023-12-29T06:30:20;2.13;;;1.50;;
11638;SDS011;5875;35.940;126.892;2023-12-29T06:32:47;1.67;;;1.57;;
11638;SDS011;5875;35.940;126.892;2023-12-29T06:35:14;1.80;;;0.97;;
11638;SDS011;5875;35.940;126.892;2023-12-29T06:37:42;0.90;;;0.90;;
11638;SDS011;5875;35.940;126.892;2023-12-29T06:40:09;0.87;;;0.80;;
11638;SDS011;5875;35.940;126.892;2023-12-29T06:42:36;0.77;;;0.77;;
11638;SDS011;5875;35.940;126.892;2023-12-29T06:45:04;1.50;;;1.40;;
11638;SDS011;5875;35.940;126.892;2023-12-29T06:47:33;1.67;;;1.57;;
11638;SDS011;5875;35.940;126.892;2023-12-29T06:50:00;1.67;;;1.20;;
11638;SDS011;5875;35.940;126.892;2023-12-29T06:52:28;2.43;;;2.20;;
11638;SDS011;5875;35.940;126.892;2023-12-29T06:55:02;3.87;;;1.27;;
11638;SDS011;5875;35.940;126.892;2023-12-29T06:57:29;2.53;;;1.53;;
11638;SDS011;5875;35.940;126.892;2023-12-29T06:59:56;2.03;;;1.93;;
11638;SDS011;5875;35.940;126.892;2023-12-29T07:02:24;1.03;;;0.93;;
11638;SDS011;5875;35.940;126.892;2023-12-29T07:04:51;3.63;;;2.80;;
11638;SDS011;5875;35.940;126.892;2023-12-29T07:07:18;1.50;;;1.47;;
11638;SDS011;5875;35.940;126.892;2023-12-29T07:09:45;0.60;;;0.60;;
11638;SDS011;5875;35.940;126.892;2023-12-29T07:12:12;3.90;;;3.63;;
11638;SDS011;5875;35.940;126.892;2023-12-29T07:14:40;2.40;;;1.63;;
11638;SDS011;5875;35.940;126.892;2023-12-29T07:17:07;2.23;;;2.13;;
11638;SDS011;5875;35.940;126.892;2023-12-29T07:19:37;2.87;;;1.90;;
11638;SDS011;5875;35.940;126.892;2023-12-29T07:22:05;1.00;;;1.00;;
11638;SDS011;5875;35.940;126.892;2023-12-29T07:24:33;0.63;;;0.63;;
11638;SDS011;5875;35.940;126.892;2023-12-29T07:27:01;4.10;;;3.17;;
11638;SDS011;5875;35.940;126.892;2023-12-29T07:29:29;1.13;;;1.07;;
11638;SDS011;5875;35.940;126.892;2023-12-29T07:31:57;3.00;;;2.67;;
11638;SDS011;5875;35.940;126.892;2023-12-29T07:34:24;0.40;;;0.40;;
11638;SDS011;5875;35.940;126.892;2023-12-29T07:36:52;2.30;;;1.87;;
11638;SDS011;5875;35.940;126.892;2023-12-29T07:39:24;6.00;;;4.63;;
11638;SDS011;5875;35.940;126.892;2023-12-29T07:41:51;2.57;;;1.30;;
11638;SDS011;5875;35.940;126.892;2023-12-29T07:44:19;3.53;;;1.27;;
11638;SDS011;5875;35.940;126.892;2023-12-29T07:46:46;1.23;;;1.23;;
11638;SDS011;5875;35.940;126.892;2023-12-29T07:49:13;2.67;;;1.00;;
11638;SDS011;5875;35.940;126.892;2023-12-29T07:51:40;1.60;;;1.47;;
11638;SDS011;5875;35.940;126.892;2023-12-29T07:54:08;1.30;;;1.30;;
11638;SDS011;5875;35.940;126.892;2023-12-29T07:56:35;5.43;;;2.93;;
11638;SDS011;5875;35.940;126.892;2023-12-29T07:59:03;0.93;;;0.93;;
11638;SDS011;5875;35.940;126.892;2023-12-29T08:01:31;2.37;;;2.17;;
11638;SDS011;5875;35.940;126.892;2023-12-29T08:03:58;1.47;;;1.47;;
11638;SDS011;5875;35.940;126.892;2023-12-29T08:06:25;1.87;;;1.77;;
11638;SDS011;5875;35.940;126.892;2023-12-29T08:08:53;1.10;;;1.03;;
11638;SDS011;5875;35.940;126.892;2023-12-29T08:11:21;1.47;;;1.37;;
11638;SDS011;5875;35.940;126.892;2023-12-29T08:13:48;3.40;;;2.03;;
11638;SDS011;5875;35.940;126.892;2023-12-29T08:16:15;1.57;;;1.47;;
11638;SDS011;5875;35.940;126.892;2023-12-29T08:18:43;1.00;;;0.87;;
11638;SDS011;5875;35.940;126.892;2023-12-29T08:21:21;2.10;;;2.00;;
11638;SDS011;5875;35.940;126.892;2023-12-29T08:23:49;1.73;;;1.63;;
11638;SDS011;5875;35.940;126.892;2023-12-29T08:26:16;4.40;;;3.60;;
11638;SDS011;5875;35.940;126.892;2023-12-29T08:28:43;2.07;;;1.87;;
11638;SDS011;5875;35.940;126.892;2023-12-29T08:31:10;2.93;;;2.17;;
11638;SDS011;5875;35.940;126.892;2023-12-29T08:33:38;5.63;;;1.90;;
11638;SDS011;5875;35.940;126.892;2023-12-29T08:36:05;1.27;;;1.27;;
11638;SDS011;5875;35.940;126.892;2023-12-29T08:38:32;1.47;;;1.37;;
11638;SDS011;5875;35.940;126.892;2023-12-29T08:40:59;8.87;;;3.50;;
11638;SDS011;5875;35.940;126.892;2023-12-29T08:43:27;5.50;;;5.00;;
11638;SDS011;5875;35.940;126.892;2023-12-29T08:45:59;3.33;;;3.03;;
11638;SDS011;5875;35.940;126.892;2023-12-29T08:48:26;2.37;;;2.27;;
11638;SDS011;5875;35.940;126.892;2023-12-29T08:50:54;4.10;;;2.60;;
11638;SDS011;5875;35.940;126.892;2023-12-29T08:53:21;2.20;;;2.10;;
11638;SDS011;5875;35.940;126.892;2023-12-29T08:55:51;5.30;;;3.10;;
11638;SDS011;5875;35.940;126.892;2023-12-29T08:58:18;5.97;;;3.53;;
11638;SDS011;5875;35.940;126.892;2023-12-29T09:00:45;1.93;;;1.83;;
11638;SDS011;5875;35.940;126.892;2023-12-29T09:03:12;8.57;;;3.20;;
11638;SDS011;5875;35.940;126.892;2023-12-29T09:05:39;1.87;;;1.77;;
11638;SDS011;5875;35.940;126.892;2023-12-29T09:08:06;7.37;;;5.27;;
11638;SDS011;5875;35.940;126.892;2023-12-29T09:10:36;2.20;;;2.10;;
11638;SDS011;5875;35.940;126.892;2023-12-29T09:13:04;5.10;;;4.70;;
11638;SDS011;5875;35.940;126.892;2023-12-29T09:15:31;4.70;;;4.30;;
11638;SDS011;5875;35.940;126.892;2023-12-29T09:18:00;3.43;;;3.23;;
11638;SDS011;5875;35.940;126.892;2023-12-29T09:20:27;5.30;;;3.83;;
11638;SDS011;5875;35.940;126.892;2023-12-29T09:22:57;8.10;;;4.80;;
11638;SDS011;5875;35.940;126.892;2023-12-29T09:25:25;2.60;;;2.50;;
11638;SDS011;5875;35.940;126.892;2023-12-29T09:27:53;3.70;;;3.43;;
11638;SDS011;5875;35.940;126.892;2023-12-29T09:30:23;2.77;;;2.57;;
11638;SDS011;5875;35.940;126.892;2023-12-29T09:32:50;3.67;;;3.37;;
11638;SDS011;5875;35.940;126.892;2023-12-29T09:35:17;4.80;;;2.50;;
11638;SDS011;5875;35.940;126.892;2023-12-29T09:37:49;8.23;;;7.63;;
11638;SDS011;5875;35.940;126.892;2023-12-29T09:40:17;5.80;;;4.53;;
11638;SDS011;5875;35.940;126.892;2023-12-29T09:42:44;3.87;;;3.60;;
11638;SDS011;5875;35.940;126.892;2023-12-29T09:45:12;8.10;;;4.27;;
11638;SDS011;5875;35.940;126.892;2023-12-29T09:47:41;2.53;;;2.33;;
11638;SDS011;5875;35.940;126.892;2023-12-29T09:50:12;3.57;;;1.73;;
11638;SDS011;5875;35.940;126.892;2023-12-29T09:52:42;7.90;;;2.03;;
11638;SDS011;5875;35.940;126.892;2023-12-29T09:55:13;6.17;;;4.50;;
11638;SDS011;5875;35.940;126.892;2023-12-29T09:57:40;7.53;;;3.10;;
11638;SDS011;5875;35.940;126.892;2023-12-29T10:00:11;2.87;;;1.97;;
11638;SDS011;5875;35.940;126.892;2023-12-29T10:02:41;1.50;;;1.40;;
11638;SDS011;5875;35.940;126.892;2023-12-29T10:05:08;4.23;;;2.60;;
11638;SDS011;5875;35.940;126.892;2023-12-29T10:07:36;4.00;;;3.63;;
11638;SDS011;5875;35.940;126.892;2023-12-29T10:10:04;1.83;;;1.73;;
11638;SDS011;5875;35.940;126.892;2023-12-29T10:12:33;6.57;;;3.33;;
11638;SDS011;5875;35.940;126.892;2023-12-29T10:21:08;4.23;;;3.83;;
11638;SDS011;5875;35.940;126.892;2023-12-29T10:26:30;1.17;;;1.17;;
11638;SDS011;5875;35.940;126.892;2023-12-29T10:28:57;6.13;;;5.63;;
11638;SDS011;5875;35.940;126.892;2023-12-29T10:31:25;4.17;;;3.87;;
11638;SDS011;5875;35.940;126.892;2023-12-29T10:33:52;3.93;;;3.17;;
11638;SDS011;5875;35.940;126.892;2023-12-29T10:36:55;5.07;;;4.50;;
11638;SDS011;5875;35.940;126.892;2023-12-29T10:39:23;4.60;;;4.27;;
11638;SDS011;5875;35.940;126.892;2023-12-29T10:42:07;6.67;;;3.63;;
11638;SDS011;5875;35.940;126.892;2023-12-29T10:44:35;5.53;;;4.90;;
11638;SDS011;5875;35.940;126.892;2023-12-29T10:47:12;7.77;;;4.57;;
11638;SDS011;5875;35.940;126.892;2023-12-29T10:49:40;5.73;;;3.77;;
11638;SDS011;5875;35.940;126.892;2023-12-29T10:52:11;4.83;;;4.40;;
11638;SDS011;5875;35.940;126.892;2023-12-29T10:54:42;5.23;;;4.80;;
11638;SDS011;5875;35.940;126.892;2023-12-29T10:57:10;7.40;;;5.33;;
11638;SDS011;5875;35.940;126.892;2023-12-29T10:59:38;11.30;;;4.80;;
11638;SDS011;5875;35.940;126.892;2023-12-29T11:02:06;6.50;;;5.50;;
11638;SDS011;5875;35.940;126.892;2023-12-29T11:04:39;5.03;;;4.03;;
11638;SDS011;5875;35.940;126.892;2023-12-29T11:07:07;3.30;;;2.67;;
11638;SDS011;5875;35.940;126.892;2023-12-29T11:09:37;6.13;;;5.53;;
11638;SDS011;5875;35.940;126.892;2023-12-29T11:12:04;6.43;;;5.90;;
11638;SDS011;5875;35.940;126.892;2023-12-29T11:14:32;30.17;;;4.97;;
11638;SDS011;5875;35.940;126.892;2023-12-29T11:17:00;6.10;;;5.33;;
11638;SDS011;5875;35.940;126.892;2023-12-29T11:19:27;5.13;;;4.53;;
11638;SDS011;5875;35.940;126.892;2023-12-29T11:21:55;8.20;;;4.10;;
11638;SDS011;5875;35.940;126.892;2023-12-29T11:24:22;6.93;;;5.93;;
11638;SDS011;5875;35.940;126.892;2023-12-29T11:26:50;6.70;;;5.10;;
11638;SDS011;5875;35.940;126.892;2023-12-29T11:29:18;4.03;;;3.70;;
11638;SDS011;5875;35.940;126.892;2023-12-29T11:31:46;6.87;;;4.67;;
11638;SDS011;5875;35.940;126.892;2023-12-29T11:34:17;11.50;;;4.80;;
11638;SDS011;5875;35.940;126.892;2023-12-29T11:36:55;4.37;;;3.87;;
11638;SDS011;5875;35.940;126.892;2023-12-29T11:39:45;6.43;;;5.93;;
11638;SDS011;5875;35.940;126.892;2023-12-29T11:42:27;8.20;;;4.40;;
11638;SDS011;5875;35.940;126.892;2023-12-29T11:45:23;2.30;;;2.10;;
11638;SDS011;5875;35.940;126.892;2023-12-29T11:47:52;8.63;;;7.87;;
11638;SDS011;5875;35.940;126.892;2023-12-29T11:50:31;3.73;;;3.43;;
11638;SDS011;5875;35.940;126.892;2023-12-29T11:52:59;4.90;;;4.50;;
11638;SDS011;5875;35.940;126.892;2023-12-29T11:55:31;6.30;;;5.70;;
11638;SDS011;5875;35.940;126.892;2023-12-29T11:58:03;6.67;;;6.03;;
11638;SDS011;5875;35.940;126.892;2023-12-29T12:00:46;10.20;;;9.10;;
11638;SDS011;5875;35.940;126.892;2023-12-29T12:05:47;7.90;;;5.80;;
11638;SDS011;5875;35.940;126.892;2023-12-29T12:13:54;8.93;;;8.07;;
11638;SDS011;5875;35.940;126.892;2023-12-29T12:17:07;11.37;;;4.73;;
11638;SDS011;5875;35.940;126.892;2023-12-29T12:19:12;10.57;;;6.60;;
11638;SDS011;5875;35.940;126.892;2023-12-29T12:21:40;5.27;;;4.30;;
11638;SDS011;5875;35.940;126.892;2023-12-29T12:24:07;5.93;;;4.67;;
11638;SDS011;5875;35.940;126.892;2023-12-29T12:26:34;9.77;;;4.10;;
11638;SDS011;5875;35.940;126.892;2023-12-29T12:29:01;9.07;;;5.17;;
11638;SDS011;5875;35.940;126.892;2023-12-29T12:31:30;7.80;;;6.43;;
11638;SDS011;5875;35.940;126.892;2023-12-29T12:33:58;10.47;;;5.40;;
11638;SDS011;5875;35.940;126.892;2023-12-29T12:36:31;6.13;;;3.30;;
11638;SDS011;5875;35.940;126.892;2023-12-29T12:38:58;6.73;;;5.10;;
11638;SDS011;5875;35.940;126.892;2023-12-29T12:41:26;3.67;;;3.37;;
11638;SDS011;5875;35.940;126.892;2023-12-29T12:46:29;5.57;;;4.23;;
11638;SDS011;5875;35.940;126.892;2023-12-29T12:49:01;4.60;;;4.30;;
11638;SDS011;5875;35.940;126.892;2023-12-29T12:51:30;11.43;;;5.57;;
11638;SDS011;5875;35.940;126.892;2023-12-29T12:53:59;6.00;;;5.50;;
11638;SDS011;5875;35.940;126.892;2023-12-29T12:56:27;6.70;;;5.67;;
11638;SDS011;5875;35.940;126.892;2023-12-29T12:58:56;6.90;;;4.90;;
11638;SDS011;5875;35.940;126.892;2023-12-29T13:01:24;8.83;;;6.73;;
11638;SDS011;5875;35.940;126.892;2023-12-29T13:03:53;8.50;;;6.90;;
11638;SDS011;5875;35.940;126.892;2023-12-29T13:06:23;13.53;;;10.03;;
11638;SDS011;5875;35.940;126.892;2023-12-29T13:08:50;12.53;;;7.83;;
11638;SDS011;5875;35.940;126.892;2023-12-29T13:11:19;12.30;;;6.07;;
11638;SDS011;5875;35.940;126.892;2023-12-29T13:13:51;14.50;;;9.37;;
11638;SDS011;5875;35.940;126.892;2023-12-29T13:16:31;9.00;;;7.57;;
11638;SDS011;5875;35.940;126.892;2023-12-29T13:19:19;9.03;;;4.63;;
11638;SDS011;5875;35.940;126.892;2023-12-29T13:21:52;7.47;;;5.50;;
11638;SDS011;5875;35.940;126.892;2023-12-29T13:24:23;7.43;;;4.47;;
11638;SDS011;5875;35.940;126.892;2023-12-29T13:26:51;10.33;;;6.37;;
11638;SDS011;5875;35.940;126.892;2023-12-29T13:29:22;4.73;;;3.67;;
11638;SDS011;5875;35.940;126.892;2023-12-29T13:31:52;4.27;;;3.87;;
11638;SDS011;5875;35.940;126.892;2023-12-29T13:35:03;10.23;;;7.53;;
11638;SDS011;5875;35.940;126.892;2023-12-29T13:37:18;8.07;;;6.40;;
11638;SDS011;5875;35.940;126.892;2023-12-29T13:40:14;9.17;;;6.03;;
11638;SDS011;5875;35.940;126.892;2023-12-29T13:43:03;12.03;;;5.13;;
11638;SDS011;5875;35.940;126.892;2023-12-29T13:45:36;9.10;;;7.80;;
11638;SDS011;5875;35.940;126.892;2023-12-29T13:48:05;4.87;;;4.07;;
11638;SDS011;5875;35.940;126.892;2023-12-29T13:50:33;22.57;;;6.07;;
11638;SDS011;5875;35.940;126.892;2023-12-29T13:53:00;8.80;;;7.53;;
11638;SDS011;5875;35.940;126.892;2023-12-29T13:55:27;10.50;;;5.80;;
11638;SDS011;5875;35.940;126.892;2023-12-29T13:57:55;17.17;;;7.10;;
11638;SDS011;5875;35.940;126.892;2023-12-29T14:00:23;8.97;;;5.20;;
11638;SDS011;5875;35.940;126.892;2023-12-29T14:10:35;8.00;;;6.80;;
11638;SDS011;5875;35.940;126.892;2023-12-29T14:13:12;8.70;;;6.80;;
11638;SDS011;5875;35.940;126.892;2023-12-29T14:15:43;6.67;;;5.93;;
11638;SDS011;5875;35.940;126.892;2023-12-29T14:20:48;11.90;;;9.47;;
11638;SDS011;5875;35.940;126.892;2023-12-29T14:23:17;9.77;;;6.53;;
11638;SDS011;5875;35.940;126.892;2023-12-29T14:25:47;4.87;;;4.43;;
11638;SDS011;5875;35.940;126.892;2023-12-29T14:28:15;6.73;;;4.67;;
11638;SDS011;5875;35.940;126.892;2023-12-29T14:30:43;14.87;;;6.83;;
11638;SDS011;5875;35.940;126.892;2023-12-29T14:33:10;12.77;;;4.67;;
11638;SDS011;5875;35.940;126.892;2023-12-29T14:35:38;6.43;;;3.63;;
11638;SDS011;5875;35.940;126.892;2023-12-29T14:38:05;13.73;;;6.17;;
11638;SDS011;5875;35.940;126.892;2023-12-29T14:40:32;4.80;;;4.10;;
11638;SDS011;5875;35.940;126.892;2023-12-29T14:43:00;4.07;;;3.50;;
11638;SDS011;5875;35.940;126.892;2023-12-29T14:45:28;13.00;;;7.00;;
11638;SDS011;5875;35.940;126.892;2023-12-29T14:47:56;6.77;;;5.50;;
11638;SDS011;5875;35.940;126.892;2023-12-29T14:50:25;7.53;;;6.33;;
11638;SDS011;5875;35.940;126.892;2023-12-29T14:52:52;8.93;;;5.00;;
11638;SDS011;5875;35.940;126.892;2023-12-29T14:55:20;11.67;;;5.57;;
11638;SDS011;5875;35.940;126.892;2023-12-29T14:57:47;7.83;;;5.17;;
11638;SDS011;5875;35.940;126.892;2023-12-29T15:00:14;6.63;;;5.67;;
11638;SDS011;5875;35.940;126.892;2023-12-29T15:02:42;5.93;;;5.33;;
11638;SDS011;5875;35.940;126.892;2023-12-29T15:05:09;9.17;;;4.83;;
11638;SDS011;5875;35.940;126.892;2023-12-29T15:07:36;7.33;;;5.53;;
11638;SDS011;5875;35.940;126.892;2023-12-29T15:10:04;9.83;;;7.93;;
11638;SDS011;5875;35.940;126.892;2023-12-29T15:12:31;5.23;;;4.77;;
11638;SDS011;5875;35.940;126.892;2023-12-29T15:14:58;6.47;;;5.43;;
11638;SDS011;5875;35.940;126.892;2023-12-29T15:17:25;8.53;;;5.57;;